createdAt,value
2019-03-24T00:00:52.796Z,95086.02
2019-03-24T00:15:51.457Z,95088.86
2019-03-24T00:30:50.741Z,95087.63
2019-03-24T00:45:51.809Z,95086.08
2019-03-24T01:00:52.080Z,95088.42
2019-03-24T01:15:50.889Z,95079.79
2019-03-24T01:30:51.239Z,95058.61
2019-03-24T01:45:58.592Z,95084.50
2019-03-24T02:00:51.199Z,95083.20
2019-03-24T02:15:53.602Z,95067.51
2019-03-24T02:30:50.825Z,95058.07
2019-03-24T02:45:50.847Z,95066.72
2019-03-24T03:00:51.054Z,95071.16
2019-03-24T03:15:50.854Z,95058.06
2019-03-24T03:30:50.919Z,95070.83
2019-03-24T03:45:51.140Z,95076.31
2019-03-24T04:00:51.282Z,95084.37
2019-03-24T04:15:50.519Z,95092.23
2019-03-24T04:30:50.278Z,95100.34
2019-03-24T04:45:54.222Z,95103.52
2019-03-24T05:00:51.207Z,95102.11
2019-03-24T05:15:56.602Z,95108.56
2019-03-24T05:30:50.687Z,95124.60
2019-03-24T05:45:50.577Z,95133.76
2019-03-24T06:00:50.573Z,95132.52
2019-03-24T06:15:57.121Z,95123.89
2019-03-24T06:30:51.166Z,95119.27
2019-03-24T06:45:54.458Z,95131.50
2019-03-24T07:00:50.242Z,95135.84
2019-03-24T07:15:51.224Z,95123.37
2019-03-24T07:30:51.294Z,95128.05
2019-03-24T07:45:51.311Z,95129.36
2019-03-24T08:00:54.675Z,95123.28
2019-03-24T08:15:52.196Z,95119.57
2019-03-24T08:30:51.100Z,95106.45
2019-03-24T08:46:00.162Z,95085.87
2019-03-24T09:00:51.053Z,95065.41
2019-03-24T09:15:52.439Z,95055.89
2019-03-24T09:30:51.371Z,95043.91
2019-03-24T09:45:50.266Z,95041.01
2019-03-24T10:00:56.374Z,95029.94
2019-03-24T10:15:50.591Z,95019.95
2019-03-24T10:30:50.510Z,95009.84
2019-03-24T10:45:51.105Z,94987.77
2019-03-24T11:00:54.097Z,94959.72
2019-03-24T11:15:51.847Z,94923.20
2019-03-24T11:30:51.086Z,94913.20
2019-03-24T11:45:51.448Z,94899.60
2019-03-24T12:00:52.879Z,94887.59
2019-03-24T12:15:50.897Z,94855.52
2019-03-24T12:30:51.993Z,94851.52
2019-03-24T12:45:51.288Z,94832.50
2019-03-24T13:00:51.437Z,94805.91
2019-03-24T13:15:51.395Z,94777.64
2019-03-24T13:30:51.244Z,94768.05
2019-03-24T13:45:50.757Z,94746.51
2019-03-24T14:00:50.517Z,94728.72
2019-03-24T14:15:50.440Z,94727.69
2019-03-24T14:30:50.807Z,94714.23
2019-03-24T14:45:50.738Z,94701.50
2019-03-24T15:00:51.385Z,94700.20
2019-03-24T15:15:51.288Z,94697.34
2019-03-24T15:30:50.971Z,94677.42
2019-03-24T15:45:51.000Z,94675.44
2019-03-24T16:00:51.039Z,94671.88
2019-03-24T16:15:50.962Z,94675.17
2019-03-24T16:30:51.307Z,94670.12
2019-03-24T16:45:50.971Z,94686.47
2019-03-24T17:00:56.787Z,94703.11
2019-03-24T17:15:53.448Z,94705.13
2019-03-24T17:30:50.365Z,94714.68
2019-03-24T17:45:50.342Z,94728.61
2019-03-24T18:00:52.682Z,94727.67
2019-03-24T18:15:51.060Z,94727.00
2019-03-24T18:30:51.097Z,94721.95
2019-03-24T18:45:51.065Z,94724.10
2019-03-24T19:00:53.899Z,94726.30
2019-03-24T19:15:51.276Z,94729.13
2019-03-24T19:45:54.452Z,94730.13
2019-03-24T20:00:52.053Z,94726.13
2019-03-24T20:15:50.514Z,94726.22
2019-03-24T20:30:50.631Z,94715.03
2019-03-24T20:45:50.533Z,94704.43
2019-03-24T21:00:50.852Z,94706.34
2019-03-24T21:15:50.853Z,94704.11
2019-03-24T21:30:51.007Z,94700.22
2019-03-24T21:45:52.729Z,94688.61
2019-03-24T22:00:50.825Z,94668.83
2019-03-24T22:15:56.498Z,94659.42
2019-03-24T22:30:50.873Z,94654.38
2019-03-24T22:45:51.430Z,94666.66
2019-03-24T23:00:54.437Z,94666.23
2019-03-24T23:15:51.304Z,94664.11
2019-03-24T23:30:51.820Z,94650.95
